• Join FlightAware (Why Join?)
  • Login
  • US Flag 
Rudolph Flight #1: Arrived! 
01:55PM EST


 

Airport Tracker/Info


-or-


 

Live Flight TrackerFlight Track Log ✈ AAL9703 ✈ 19-Mar-2013 ✈ KPAE - KDFW

Flight Track Log - Related Links

Times and Time Zones

All times are in EDT time to prevent confusion due to time zone crossing. See the AAL9703 flight status page for this flight to view local times or setup timezone preferences in your user account.

Time Position Orientation Groundspeed Altitude Reporting Facility
EDT Latitude Longitude Course Direction KTS MPH feet Rate Location/Type
05:36PM 47.8958 -122.2856 183° South 162 186 1,500  Level Seattle Center
05:37PM 47.8478 -122.2892 113° Southeast 202 232 3,600 1,860 Climbing Seattle Center
05:37PM 47.8531 -122.2906 113° Southeast 183 211 3,400 3,360 Descending Seattle Center
05:38PM 47.7867 -122.2406 113° Southeast 243 280 7,300 3,720 Climbing Seattle Center
05:39PM 47.7381 -122.1461 112° Southeast 274 315 11,000 3,000 Climbing Seattle Center
05:40PM 47.7008 -122.0169 112° Southeast 351 404 13,500 3,360 Climbing Seattle Center
05:42PM 47.6280 -121.7640 113° Southeast 413 475 20,300 3,240 Climbing FlightAware
05:43PM 47.5910 -121.6330 113° Southeast 424 488 21,900 1,020 Climbing FlightAware
05:44PM 47.5660 -121.5420 112° Southeast 424 488 21,900  Level FlightAware
05:44PM 47.5350 -121.4270 112° Southeast 424 488 21,900  Level FlightAware
05:45PM 47.5100 -121.3350 112° Southeast 424 488 21,900  Level FlightAware
05:46PM 47.4850 -121.2440 112° Southeast 424 488 21,900  Level FlightAware
05:46PM 47.4600 -121.1520 112° Southeast 424 488 21,900 2,940 Level FlightAware
05:48PM 47.3589 -120.8531 112° Southeast 474 545 27,000 2,460 Climbing Seattle Center
05:49PM 47.3003 -120.6675 115° Southeast 477 549 27,000  Level Seattle Center
05:50PM 47.2475 -120.4897 114° Southeast 477 549 27,000  Level Seattle Center
05:51PM 47.1931 -120.3133 114° Southeast 475 547 27,000 -60 Level Seattle Center
05:52PM 47.1381 -120.1369 115° Southeast 476 548 26,900  Descending Seattle Center
05:53PM 47.0719 -119.9258 115° Southeast 477 549 27,000  Climbing Seattle Center
05:54PM 47.0169 -119.7489 114° Southeast 479 551 27,000  Level Seattle Center
05:55PM 46.9606 -119.5728 115° Southeast 480 552 27,000  Level Seattle Center
05:56PM 46.9056 -119.3983 115° Southeast 476 548 27,000  Level Seattle Center
05:57PM 46.8481 -119.2231 116° Southeast 479 551 27,000  Level Seattle Center
05:58PM 46.7922 -119.0483 115° Southeast 476 548 27,000  Level Seattle Center
05:59PM 46.7356 -118.8739 115° Southeast 478 550 27,000 -60 Level Seattle Center
06:00PM 46.6794 -118.7022 115° Southeast 476 548 26,900 -60 Descending Seattle Center
06:01PM 46.6131 -118.5361 120° Southeast 478 550 26,900  Level Seattle Center
06:02PM 46.5406 -118.3750 123° Southeast 479 551 26,900  Level Seattle Center
06:03PM 46.4658 -118.2147 124° Southeast 481 554 27,000  Climbing Seattle Center
06:04PM 46.3925 -118.0567 124° Southeast 479 551 27,000  Level Seattle Center
06:05PM 46.3028 -117.8653 124° Southeast 481 554 27,000  Level Seattle Center
06:07PM 46.1528 -117.5483 124° Southeast 480 552 27,000  Level Salt Lake Center
06:08PM 46.0781 -117.3914 124° Southeast 478 550 27,000  Level Seattle Center
06:09PM 46.0033 -117.2364 125° Southeast 476 548 27,000 -60 Level Seattle Center
06:10PM 45.9283 -117.0808 125° Southeast 475 547 26,900  Descending Seattle Center
06:11PM 45.8531 -116.9250 125° Southeast 477 549 27,000  Climbing Seattle Center
06:12PM 45.7772 -116.7700 125° Southeast 477 549 26,900 -60 Descending Seattle Center
06:13PM 45.7014 -116.6144 125° Southeast 478 550 26,900  Level Seattle Center
06:14PM 45.6178 -116.4403 124° Southeast 476 548 27,000  Climbing Seattle Center
06:15PM 45.5439 -116.2911 125° Southeast 479 551 27,000  Level Seattle Center
06:16PM 45.4581 -116.1192 125° Southeast 480 552 27,000  Level Salt Lake Center
06:17PM 45.3717 -115.9478 126° Southeast 475 547 27,000  Level Salt Lake Center
06:18PM 45.2975 -115.7975 125° Southeast 482 555 27,000  Level Salt Lake Center
06:19PM 45.2214 -115.6492 126° Southeast 482 555 27,000  Level Seattle Center
06:20PM 45.1458 -115.5003 126° Southeast 485 558 27,000  Level Seattle Center
06:21PM 45.0714 -115.3533 126° Southeast 481 554 27,000  Level Seattle Center
06:22PM 44.9831 -115.1836 126° Southeast 479 551 27,000  Level Seattle Center
06:23PM 44.9081 -115.0372 126° Southeast 478 550 27,000  Level Seattle Center
06:24PM 44.8311 -114.8914 127° Southeast 481 554 27,000  Level Seattle Center
06:25PM 44.7431 -114.7200 126° Southeast 482 555 27,000  Level Seattle Center
06:26PM 44.6678 -114.5753 126° Southeast 480 552 27,000  Level Seattle Center
06:27PM 44.5906 -114.4283 126° Southeast 482 555 27,000  Level Seattle Center
06:28PM 44.4997 -114.2581 127° Southeast 485 558 27,000  Level Seattle Center
06:29PM 44.4089 -114.0886 127° Southeast 486 559 27,000  Level Salt Lake Center
06:30PM 44.3189 -113.9206 127° Southeast 487 560 27,000  Level Salt Lake Center
06:31PM 44.2428 -113.7775 127° Southeast 484 557 27,000  Level Salt Lake Center
06:32PM 44.1500 -113.6083 127° Southeast 488 562 27,000  Level Salt Lake Center
06:33PM 44.0728 -113.4656 127° Southeast 486 559 27,000  Level Salt Lake Center
06:34PM 43.9783 -113.2964 128° Southeast 493 567 27,000  Level Salt Lake Center
06:36PM 43.8992 -113.1536 128° Southeast 492 566 27,000  Level Salt Lake Center
06:37PM 43.8081 -112.9869 127° Southeast 488 562 27,000  Level Salt Lake Center
06:38PM 43.7278 -112.8442 128° Southeast 492 566 27,000  Level Salt Lake Center
06:39PM 43.6478 -112.7006 128° Southeast 493 567 27,000  Level Salt Lake Center
06:40PM 43.5536 -112.5325 128° Southeast 497 572 27,000  Level Salt Lake Center
06:41PM 43.4733 -112.3925 128° Southeast 491 565 27,000  Level Salt Lake Center
06:42PM 43.3778 -112.2247 128° Southeast 498 573 27,000  Level Salt Lake Center
06:43PM 43.2969 -112.0844 128° Southeast 493 567 27,000  Level Salt Lake Center
06:44PM 43.2017 -111.9181 128° Southeast 496 571 27,000  Level Salt Lake Center
06:45PM 43.1192 -111.7778 129° Southeast 496 571 27,000  Level Salt Lake Center
06:46PM 43.0383 -111.6350 128° Southeast 497 572 27,000  Level Salt Lake Center
06:47PM 42.9417 -111.4717 129° Southeast 496 571 27,000  Level Salt Lake Center
06:48PM 42.8592 -111.3319 129° Southeast 496 571 27,000  Level Salt Lake Center
06:49PM 42.7622 -111.1689 129° Southeast 497 572 27,000  Level Salt Lake Center
06:50PM 42.6778 -111.0264 129° Southeast 497 572 27,000  Level Salt Lake Center
06:51PM 42.5861 -110.8719 129° Southeast 497 572 27,000  Level Salt Lake Center
06:52PM 42.5033 -110.7344 129° Southeast 495 570 27,000  Level Salt Lake Center
06:53PM 42.4064 -110.5744 129° Southeast 493 567 27,000  Level Salt Lake Center
06:54PM 42.3236 -110.4369 129° Southeast 494 568 27,000  Level Salt Lake Center
06:55PM 42.2256 -110.2764 129° Southeast 496 571 27,000  Level Salt Lake Center
06:56PM 42.1425 -110.1389 129° Southeast 495 570 27,000  Level Salt Lake Center
06:57PM 42.0589 -110.0022 129° Southeast 495 570 27,000  Level Salt Lake Center
06:58PM 41.9603 -109.8442 130° Southeast 495 570 27,000  Level Salt Lake Center
06:59PM 41.8767 -109.7081 129° Southeast 494 568 27,000  Level Salt Lake Center
07:00PM 41.7781 -109.5503 130° Southeast 495 570 27,000  Level Salt Lake Center
07:01PM 41.6939 -109.4144 130° Southeast 494 568 27,000  Level Salt Lake Center
07:02PM 41.6094 -109.2792 130° Southeast 495 570 27,000  Level Salt Lake Center
07:03PM 41.5086 -109.1183 130° Southeast 498 573 27,000  Level Salt Lake Center
07:04PM 41.4186 -108.9769 130° Southeast 499 574 27,000  Level Salt Lake Center
07:05PM 41.3331 -108.8439 131° Southeast 493 567 27,000  Level Salt Lake Center
07:06PM 41.2336 -108.6892 130° Southeast 492 566 27,000  Level Salt Lake Center
07:07PM 41.1483 -108.5567 130° Southeast 491 565 27,000  Level Salt Lake Center
07:08PM 41.0494 -108.4039 131° Southeast 491 565 27,000  Level Salt Lake Center
07:09PM 40.9639 -108.2717 131° Southeast 493 567 27,000  Level Salt Lake Center
07:10PM 40.8778 -108.1406 131° Southeast 494 568 27,000  Level Salt Lake Center
07:11PM 40.7769 -107.9858 131° Southeast 497 572 27,000  Level Salt Lake Center
07:12PM 40.6911 -107.8550 131° Southeast 495 570 27,000  Level Salt Lake Center
07:13PM 40.5897 -107.7031 131° Southeast 494 568 27,000  Level Salt Lake Center
07:14PM 40.5661 -107.6669 131° Southeast 496 571 27,000  Level Denver Center
07:15PM 40.4631 -107.5131 131° Southeast 499 574 27,000  Level Denver Center
07:16PM 40.3764 -107.3828 132° Southeast 496 571 27,000  Level Denver Center
07:17PM 40.2883 -107.2517 132° Southeast 498 573 27,000  Level Denver Center
07:18PM 40.1858 -107.1019 132° Southeast 494 568 27,000  Level Denver Center
07:19PM 40.0994 -106.9736 132° Southeast 491 565 27,000  Level Denver Center
07:20PM 39.9780 -106.7960 131° Southeast 490 564 27,000  Level FlightAware
07:21PM 39.9230 -106.7150 132° Southeast 490 564 27,000  Level FlightAware
07:22PM 39.8530 -106.6140 132° Southeast 492 566 27,000  Level FlightAware
07:22PM 39.8189 -106.5650 132° Southeast 494 568 27,000  Level FlightAware ADS-B
07:22PM 39.7728 -106.4980 132° Southeast 491 565 27,000  Level FlightAware ADS-B
07:23PM 39.7249 -106.4290 132° Southeast 493 567 27,000  Level FlightAware ADS-B
07:23PM 39.6792 -106.3630 132° Southeast 492 566 27,000  Level FlightAware ADS-B
07:24PM 39.6325 -106.2960 132° Southeast 494 568 27,000  Level FlightAware ADS-B
07:24PM 39.5861 -106.2290 132° Southeast 494 568 27,000  Level FlightAware ADS-B
07:25PM 39.5395 -106.1620 132° Southeast 493 567 27,000  Level FlightAware ADS-B
07:25PM 39.4925 -106.0950 132° Southeast 491 565 27,000  Level FlightAware ADS-B
07:26PM 39.4462 -106.0290 132° Southeast 490 564 27,000  Level FlightAware ADS-B
07:27PM 39.3994 -105.9630 133° Southeast 490 564 27,000  Level FlightAware ADS-B
07:27PM 39.3534 -105.8970 132° Southeast 489 563 27,000  Level FlightAware ADS-B
07:28PM 39.3065 -105.8300 132° Southeast 492 566 27,000  Level FlightAware ADS-B
07:28PM 39.2602 -105.7650 133° Southeast 487 560 27,000  Level FlightAware ADS-B
07:29PM 39.2145 -105.7010 133° Southeast 491 565 27,000  Level FlightAware ADS-B
07:29PM 39.1664 -105.6330 132° Southeast 494 568 27,000  Level FlightAware ADS-B
07:30PM 39.1168 -105.5630 132° Southeast 497 572 27,000  Level FlightAware ADS-B
07:30PM 39.0565 -105.4790 133° Southeast 492 566 27,000  Level FlightAware ADS-B
07:31PM 39.0098 -105.4130 132° Southeast 495 570 27,000  Level FlightAware ADS-B
07:31PM 38.9628 -105.3480 133° Southeast 495 570 27,000  Level FlightAware ADS-B
07:32PM 38.9156 -105.2820 133° Southeast 498 573 27,000  Level FlightAware ADS-B
07:32PM 38.8686 -105.2170 133° Southeast 498 573 27,000  Level FlightAware ADS-B
07:33PM 38.8200 -105.1490 133° Southeast 497 572 27,000  Level FlightAware ADS-B
07:33PM 38.7724 -105.0830 133° Southeast 498 573 27,000  Level FlightAware ADS-B
07:34PM 38.7206 -105.0120 133° Southeast 495 570 27,000  Level FlightAware ADS-B
07:34PM 38.6736 -104.9470 133° Southeast 494 568 27,000  Level FlightAware ADS-B
07:35PM 38.6258 -104.8810 133° Southeast 495 570 27,000  Level FlightAware ADS-B
07:35PM 38.5781 -104.8160 133° Southeast 495 570 27,000  Level FlightAware ADS-B
07:36PM 38.5212 -104.7380 133° Southeast 495 570 27,000  Level FlightAware ADS-B
07:37PM 38.4674 -104.6650 133° Southeast 497 572 27,000  Level FlightAware ADS-B
07:37PM 38.3968 -104.5680 133° Southeast 497 572 27,000  Level FlightAware ADS-B
07:38PM 38.3437 -104.4960 133° Southeast 494 568 27,000  Level FlightAware ADS-B
07:38PM 38.2938 -104.4290 133° Southeast 494 568 27,000  Level FlightAware ADS-B
07:39PM 38.2312 -104.3480 135° Southeast 494 568 27,000  Level FlightAware ADS-B
07:40PM 38.1819 -104.2850 135° Southeast 494 568 27,000  Level FlightAware ADS-B
07:40PM 38.1328 -104.2230 135° Southeast 494 568 27,000  Level FlightAware ADS-B
07:41PM 38.0795 -104.1550 135° Southeast 495 570 27,000  Level FlightAware ADS-B
07:41PM 38.0091 -104.0650 135° Southeast 494 568 27,000  Level FlightAware ADS-B
07:42PM 37.9276 -103.9610 135° Southeast 494 568 27,000  Level FlightAware ADS-B
07:43PM 37.8737 -103.8930 135° Southeast 491 565 27,000  Level FlightAware ADS-B
07:43PM 37.8221 -103.8270 135° Southeast 489 563 27,000  Level FlightAware ADS-B
07:44PM 37.7247 -103.7050 135° Southeast 487 560 27,000  Level FlightAware ADS-B
07:45PM 37.6747 -103.6420 135° Southeast 487 560 27,000  Level FlightAware ADS-B
07:45PM 37.6267 -103.5820 135° Southeast 486 559 27,000  Level FlightAware ADS-B
07:46PM 37.5720 -103.5130 135° Southeast 485 558 27,000  Level FlightAware ADS-B
07:46PM 37.5256 -103.4556 135° Southeast 486 559 27,000  Level Albuquerque Center
07:47PM 37.4786 -103.3975 136° Southeast 487 560 27,000  Level Denver Center
07:48PM 37.3861 -103.2825 135° Southeast 487 560 27,000  Level Denver Center
07:48PM 37.3403 -103.2250 135° Southeast 486 559 27,000  Level Albuquerque Center
07:50PM 37.2325 -103.0917 135° Southeast 486 559 27,000  Level Albuquerque Center
07:51PM 37.1397 -102.9792 136° Southeast 484 557 27,000  Level Albuquerque Center
07:52PM 37.0383 -102.8425 133° Southeast 480 552 27,000  Level Albuquerque Center
07:53PM 36.9581 -102.7175 129° Southeast 479 551 27,000  Level Albuquerque Center
07:54PM 36.8772 -102.5939 129° Southeast 480 552 27,000  Level Albuquerque Center
07:55PM 36.7853 -102.4497 129° Southeast 477 549 27,000  Level Albuquerque Center
07:56PM 36.7008 -102.3219 129° Southeast 478 550 27,000  Level Albuquerque Center
07:57PM 36.6186 -102.1961 129° Southeast 479 551 27,000  Level Albuquerque Center
07:58PM 36.5342 -102.0669 129° Southeast 474 545 27,000  Level Albuquerque Center
07:59PM 36.4506 -101.9411 130° Southeast 472 543 27,000  Level Albuquerque Center
08:00PM 36.3506 -101.7917 130° Southeast 469 540 27,000  Level Albuquerque Center
08:01PM 36.2664 -101.6650 129° Southeast 472 543 27,000  Level Albuquerque Center
08:02PM 36.1819 -101.5397 130° Southeast 473 544 27,000  Level Albuquerque Center
08:03PM 36.0975 -101.4125 129° Southeast 476 548 27,000  Level Albuquerque Center
08:04PM 36.0119 -101.2853 130° Southeast 478 550 27,000  Level Albuquerque Center
08:05PM 35.9275 -101.1600 130° Southeast 475 547 27,000  Level Albuquerque Center
08:06PM 35.8417 -101.0353 130° Southeast 474 545 27,000  Level Albuquerque Center
08:07PM 35.7436 -100.8928 130° Southeast 478 550 27,000  Level Albuquerque Center
08:08PM 35.6694 -100.7856 130° Southeast 476 548 27,000  Level Albuquerque Center
08:09PM 35.5683 -100.6361 130° Southeast 473 544 27,000  Level Albuquerque Center
08:10PM 35.4886 -100.5219 131° Southeast 473 544 27,000  Level Albuquerque Center
08:11PM 35.4022 -100.4000 131° Southeast 474 545 27,000  Level Albuquerque Center
08:12PM 35.3178 -100.2775 130° Southeast 473 544 27,000  Level Albuquerque Center
08:13PM 35.2322 -100.1558 131° Southeast 471 542 27,000  Level Albuquerque Center
08:14PM 35.1289 -100.0100 131° Southeast 472 543 27,000  Level Albuquerque Center
08:15PM 35.0433 -99.8889 131° Southeast 471 542 27,000  Level Albuquerque Center
08:16PM 34.9586 -99.7678 130° Southeast 470 541 27,000  Level Albuquerque Center
08:17PM 34.8708 -99.6450 131° Southeast 477 549 27,000  Level Albuquerque Center
08:18PM 34.7956 -99.5425 132° Southeast 476 548 27,000  Level Fort Worth Center
08:19PM 34.7100 -99.4192 160° South 476 548 27,000  Level Fort Worth Center
08:20PM 34.6203 -99.2986 161° South 476 548 27,000  Level Fort Worth Center
08:21PM 34.5344 -99.1731 160° South 476 548 27,000  Level Fort Worth Center
08:22PM 34.4372 -99.1006 104° East 469 540 27,000  Level Fort Worth Center
08:23PM 34.2780 -99.0330 132° Southeast 389 448 27,000  Level FlightAware
08:24PM 34.2100 -99.0030 160° South 389 448 27,000  Level FlightAware
08:25PM 34.1320 -98.9700 161° South 385 443 27,000  Level FlightAware
08:26PM 34.0750 -98.9450 160° South 385 443 27,000  Level FlightAware
08:26PM 34.0180 -98.9200 160° South 385 443 27,000 -420 Level FlightAware
08:27PM 33.9910 -98.7930 104° East 475 547 26,600 -420 Descending FlightAware
08:27PM 33.9490 -98.6970 118° Southeast 475 547 26,600 -1,620 Level FlightAware
08:28PM 33.8880 -98.5660 119° Southeast 478 550 24,100 -1,740 Descending FlightAware
08:29PM 33.8470 -98.4780 119° Southeast 470 541 24,000 -120 Descending FlightAware
08:29PM 33.8040 -98.3880 120° Southeast 453 521 24,000 -480 Level FlightAware
08:30PM 33.7720 -98.3200 120° Southeast 446 513 23,500 -1,440 Descending FlightAware
08:31PM 33.7290 -98.2290 120° Southeast 441 507 22,200 -1,200 Descending FlightAware
08:32PM 33.6770 -98.1160 119° Southeast 437 503 21,500 -480 Descending FlightAware
08:32PM 33.6430 -98.0440 120° Southeast 437 503 21,500  Level FlightAware
08:33PM 33.6100 -97.9720 119° Southeast 437 503 21,500 -3,420 Level FlightAware
08:34PM 33.5550 -97.8620 121° Southeast 402 463 16,700 -4,080 Descending FlightAware
08:34PM 33.5060 -97.7860 128° Southeast 376 433 15,400 -1,740 Descending FlightAware
08:35PM 33.4570 -97.7280 135° Southeast 368 423 14,300 -1,680 Descending FlightAware
08:36PM 33.4070 -97.6690 135° Southeast 357 411 13,200 -1,560 Descending FlightAware
08:37PM 33.3630 -97.6170 135° Southeast 354 407 12,100 -1,440 Descending FlightAware
08:37PM 33.3130 -97.5570 135° Southeast 343 395 11,200 -900 Descending FlightAware
08:38PM 33.2700 -97.5080 136° Southeast 310 357 10,900 -240 Descending FlightAware
08:39PM 33.2250 -97.4550 135° Southeast 319 367 10,900  Level FlightAware
08:39PM 33.1820 -97.4050 136° Southeast 314 361 10,900  Level FlightAware
08:40PM 33.1340 -97.3490 136° Southeast 316 364 10,900  Level FlightAware
08:41PM 33.0930 -97.3010 136° Southeast 314 361 10,900  Level FlightAware
08:41PM 33.0470 -97.2460 135° Southeast 316 364 10,900  Level FlightAware
08:42PM 33.0060 -97.1990 136° Southeast 294 338 10,900  Level FlightAware
08:43PM 32.9740 -97.1740 147° Southeast 262 302 10,900 -780 Level FlightAware
08:43PM 32.9290 -97.1700 176° South 248 285 10,000 -1,800 Descending FlightAware
08:44PM 32.8830 -97.1700 180° South 246 283 8,500 -2,340 Descending FlightAware
08:44PM 32.8540 -97.1700 180° South 246 283 7,500 -1,980 Descending FlightAware
08:45PM 32.8200 -97.1700 180° South 249 287 6,700 -1,200 Descending FlightAware
08:45PM 32.7860 -97.1690 179° South 246 283 6,300 -840 Descending FlightAware
08:46PM 32.7510 -97.1680 179° South 241 277 5,900 -480 Descending FlightAware
08:46PM 32.7250 -97.1680 180° South 227 261 5,900  Level FlightAware
08:47PM 32.6940 -97.1680 180° South 229 264 5,900 -300 Level FlightAware
08:47PM 32.6770 -97.1680 180° South 228 262 5,700 -780 Descending FlightAware
08:47PM 32.6520 -97.1650 174° South 224 258 5,400 -600 Descending FlightAware
08:48PM 32.6410 -97.1550 143° Southeast 210 242 5,300 -600 Descending FlightAware
08:48PM 32.6360 -97.1400 112° Southeast 201 231 5,100 -1,080 Descending FlightAware
08:48PM 32.6340 -97.1140 95° East 198 228 4,700 -1,080 Descending FlightAware
08:49PM 32.6430 -97.0980 56° Northeast 195 224 4,400 -840 Descending FlightAware
08:49PM 32.6660 -97.0850 25° Northeast 198 228 4,000 -600 Descending FlightAware
08:50PM 32.6870 -97.0750 22° Northeast 187 215 3,900 -240 Descending FlightAware
08:50PM 32.7110 -97.0640 21° North 187 215 3,800 -600 Descending FlightAware
08:51PM 32.7370 -97.0590 North 190 219 3,300 -1,140 Descending FlightAware
08:51PM 32.7590 -97.0560 North 188 216 2,800 -1,080 Descending FlightAware
08:51PM 32.7790 -97.0550 North 174 200 2,400 -900 Descending FlightAware
08:52PM 32.8060 -97.0550 360° North 162 186 1,800 -840 Descending FlightAware
08:52PM 32.8250 -97.0550 360° North 134 154 1,500 -720 Descending FlightAware
08:53PM 32.8300 -97.0550 360° North 124 143 1,300 -240 Descending FlightAware
08:53PM 32.8440 -97.0560 357° North 124 143 1,300 -720 Level FlightAware
08:54PM 32.8667 -97.0500 357° North 131 151 800 -1,620 Descending Dallas / Fort Worth TRACON